sensor_id;sensor_type;location;lat;lon;timestamp;P1;durP1;ratioP1;P2;durP2;ratioP2
25649;SDS011;13505;45.196;5.696;2022-11-20T05:00:10;5.93;;;3.25;;
25649;SDS011;13505;45.196;5.696;2022-11-20T05:05:01;5.00;;;3.15;;
25649;SDS011;13505;45.196;5.696;2022-11-20T05:09:51;6.30;;;2.80;;
25649;SDS011;13505;45.196;5.696;2022-11-20T05:14:41;7.60;;;3.23;;
25649;SDS011;13505;45.196;5.696;2022-11-20T05:19:32;8.52;;;4.05;;
25649;SDS011;13505;45.196;5.696;2022-11-20T05:24:22;3.72;;;2.92;;
25649;SDS011;13505;45.196;5.696;2022-11-20T05:29:12;4.65;;;3.28;;
25649;SDS011;13505;45.196;5.696;2022-11-20T05:34:03;4.82;;;2.90;;
25649;SDS011;13505;45.196;5.696;2022-11-20T05:38:53;4.50;;;2.80;;
25649;SDS011;13505;45.196;5.696;2022-11-20T05:43:44;5.03;;;3.10;;
25649;SDS011;13505;45.196;5.696;2022-11-20T05:48:36;7.35;;;3.10;;
25649;SDS011;13505;45.196;5.696;2022-11-20T05:53:27;6.13;;;3.33;;
25649;SDS011;13505;45.196;5.696;2022-11-20T05:58:18;3.72;;;2.60;;
25649;SDS011;13505;45.196;5.696;2022-11-20T06:03:08;7.43;;;3.30;;
25649;SDS011;13505;45.196;5.696;2022-11-20T06:08:00;6.63;;;3.20;;
25649;SDS011;13505;45.196;5.696;2022-11-20T06:12:50;6.40;;;3.08;;
25649;SDS011;13505;45.196;5.696;2022-11-20T06:17:40;5.38;;;2.90;;
25649;SDS011;13505;45.196;5.696;2022-11-20T06:22:31;4.95;;;3.00;;
25649;SDS011;13505;45.196;5.696;2022-11-20T06:27:22;4.30;;;3.03;;
25649;SDS011;13505;45.196;5.696;2022-11-20T06:32:12;4.25;;;3.15;;
25649;SDS011;13505;45.196;5.696;2022-11-20T06:37:03;5.07;;;2.55;;
25649;SDS011;13505;45.196;5.696;2022-11-20T06:41:53;4.60;;;2.20;;
25649;SDS011;13505;45.196;5.696;2022-11-20T06:46:43;4.68;;;3.00;;
25649;SDS011;13505;45.196;5.696;2022-11-20T06:51:34;7.72;;;3.13;;
25649;SDS011;13505;45.196;5.696;2022-11-20T06:56:24;6.47;;;3.63;;
25649;SDS011;13505;45.196;5.696;2022-11-20T07:01:15;5.40;;;3.80;;
25649;SDS011;13505;45.196;5.696;2022-11-20T07:06:05;10.35;;;4.45;;
25649;SDS011;13505;45.196;5.696;2022-11-20T07:10:57;6.95;;;3.65;;
25649;SDS011;13505;45.196;5.696;2022-11-20T07:15:49;10.07;;;4.63;;
25649;SDS011;13505;45.196;5.696;2022-11-20T07:20:39;14.98;;;4.22;;
25649;SDS011;13505;45.196;5.696;2022-11-20T07:25:30;11.97;;;6.20;;
25649;SDS011;13505;45.196;5.696;2022-11-20T07:30:20;13.18;;;7.22;;
25649;SDS011;13505;45.196;5.696;2022-11-20T07:35:10;18.02;;;7.63;;
25649;SDS011;13505;45.196;5.696;2022-11-20T07:40:01;13.38;;;5.55;;
25649;SDS011;13505;45.196;5.696;2022-11-20T07:44:51;12.70;;;6.95;;
25649;SDS011;13505;45.196;5.696;2022-11-20T07:49:41;5.80;;;4.10;;
25649;SDS011;13505;45.196;5.696;2022-11-20T07:54:32;9.73;;;4.60;;
25649;SDS011;13505;45.196;5.696;2022-11-20T07:59:22;8.45;;;5.00;;
25649;SDS011;13505;45.196;5.696;2022-11-20T08:04:12;8.37;;;5.20;;
25649;SDS011;13505;45.196;5.696;2022-11-20T08:09:04;8.38;;;4.55;;
25649;SDS011;13505;45.196;5.696;2022-11-20T08:13:55;5.97;;;3.77;;
25649;SDS011;13505;45.196;5.696;2022-11-20T08:19:03;4.57;;;3.65;;
25649;SDS011;13505;45.196;5.696;2022-11-20T08:23:54;7.55;;;3.60;;
25649;SDS011;13505;45.196;5.696;2022-11-20T08:28:44;5.93;;;3.78;;
25649;SDS011;13505;45.196;5.696;2022-11-20T08:33:35;6.38;;;3.60;;
25649;SDS011;13505;45.196;5.696;2022-11-20T08:38:25;6.45;;;2.97;;
25649;SDS011;13505;45.196;5.696;2022-11-20T08:43:15;7.60;;;2.90;;
25649;SDS011;13505;45.196;5.696;2022-11-20T08:48:06;3.95;;;2.67;;
25649;SDS011;13505;45.196;5.696;2022-11-20T08:53:01;5.32;;;3.20;;
25649;SDS011;13505;45.196;5.696;2022-11-20T08:57:52;4.68;;;2.70;;
25649;SDS011;13505;45.196;5.696;2022-11-20T09:02:42;5.25;;;3.00;;
25649;SDS011;13505;45.196;5.696;2022-11-20T09:07:33;4.57;;;2.90;;
25649;SDS011;13505;45.196;5.696;2022-11-20T09:12:23;4.05;;;2.72;;
25649;SDS011;13505;45.196;5.696;2022-11-20T09:17:13;4.28;;;2.45;;
25649;SDS011;13505;45.196;5.696;2022-11-20T09:22:04;3.42;;;2.53;;
25649;SDS011;13505;45.196;5.696;2022-11-20T09:26:55;4.03;;;2.78;;
25649;SDS011;13505;45.196;5.696;2022-11-20T09:31:45;5.07;;;2.67;;
25649;SDS011;13505;45.196;5.696;2022-11-20T09:36:35;5.68;;;2.63;;
25649;SDS011;13505;45.196;5.696;2022-11-20T09:56:24;3.83;;;2.95;;
25649;SDS011;13505;45.196;5.696;2022-11-20T10:01:19;7.10;;;3.25;;
25649;SDS011;13505;45.196;5.696;2022-11-20T10:06:13;5.47;;;2.65;;
25649;SDS011;13505;45.196;5.696;2022-11-20T10:31:34;3.10;;;1.90;;
25649;SDS011;13505;45.196;5.696;2022-11-20T10:36:34;4.78;;;2.30;;
25649;SDS011;13505;45.196;5.696;2022-11-20T10:41:37;3.10;;;1.87;;
25649;SDS011;13505;45.196;5.696;2022-11-20T10:46:36;4.20;;;2.13;;
25649;SDS011;13505;45.196;5.696;2022-11-20T10:56:50;5.47;;;2.38;;
25649;SDS011;13505;45.196;5.696;2022-11-20T11:01:43;5.75;;;2.47;;
25649;SDS011;13505;45.196;5.696;2022-11-20T11:06:40;3.63;;;2.22;;
25649;SDS011;13505;45.196;5.696;2022-11-20T11:11:33;3.08;;;2.22;;
25649;SDS011;13505;45.196;5.696;2022-11-20T11:16:24;2.97;;;2.03;;
25649;SDS011;13505;45.196;5.696;2022-11-20T11:21:25;3.70;;;2.15;;
25649;SDS011;13505;45.196;5.696;2022-11-20T11:26:20;4.68;;;2.25;;
25649;SDS011;13505;45.196;5.696;2022-11-20T11:31:21;6.55;;;1.80;;
25649;SDS011;13505;45.196;5.696;2022-11-20T11:36:18;1.67;;;1.42;;
25649;SDS011;13505;45.196;5.696;2022-11-20T11:41:22;4.35;;;2.00;;
25649;SDS011;13505;45.196;5.696;2022-11-20T11:46:31;5.47;;;3.22;;
25649;SDS011;13505;45.196;5.696;2022-11-20T11:51:25;5.22;;;2.03;;
25649;SDS011;13505;45.196;5.696;2022-11-20T11:56:19;2.28;;;1.75;;
25649;SDS011;13505;45.196;5.696;2022-11-20T12:06:30;5.13;;;1.57;;
25649;SDS011;13505;45.196;5.696;2022-11-20T12:16:15;1.75;;;1.45;;
25649;SDS011;13505;45.196;5.696;2022-11-20T12:21:19;2.42;;;1.40;;
25649;SDS011;13505;45.196;5.696;2022-11-20T12:37:03;1.85;;;1.25;;
25649;SDS011;13505;45.196;5.696;2022-11-20T12:53:05;2.22;;;1.40;;
25649;SDS011;13505;45.196;5.696;2022-11-20T12:58:17;2.97;;;1.30;;
25649;SDS011;13505;45.196;5.696;2022-11-20T13:03:33;2.97;;;1.50;;
25649;SDS011;13505;45.196;5.696;2022-11-20T13:08:39;2.28;;;1.60;;
25649;SDS011;13505;45.196;5.696;2022-11-20T13:18:52;2.80;;;1.40;;
25649;SDS011;13505;45.196;5.696;2022-11-20T13:23:43;2.05;;;1.50;;
25649;SDS011;13505;45.196;5.696;2022-11-20T13:28:33;4.57;;;1.60;;
25649;SDS011;13505;45.196;5.696;2022-11-20T13:33:30;2.40;;;1.45;;
25649;SDS011;13505;45.196;5.696;2022-11-20T13:38:22;4.32;;;1.58;;
25649;SDS011;13505;45.196;5.696;2022-11-20T13:48:20;3.03;;;1.55;;
25649;SDS011;13505;45.196;5.696;2022-11-20T14:03:40;2.22;;;1.50;;
25649;SDS011;13505;45.196;5.696;2022-11-20T14:08:42;2.42;;;1.77;;
25649;SDS011;13505;45.196;5.696;2022-11-20T14:13:36;3.28;;;1.58;;
25649;SDS011;13505;45.196;5.696;2022-11-20T14:18:27;2.25;;;1.55;;
25649;SDS011;13505;45.196;5.696;2022-11-20T14:23:25;2.65;;;1.60;;
25649;SDS011;13505;45.196;5.696;2022-11-20T14:28:22;13.83;;;1.93;;
25649;SDS011;13505;45.196;5.696;2022-11-20T14:33:16;1.88;;;1.48;;
25649;SDS011;13505;45.196;5.696;2022-11-20T14:38:08;2.58;;;1.70;;
25649;SDS011;13505;45.196;5.696;2022-11-20T14:43:04;2.40;;;1.90;;
25649;SDS011;13505;45.196;5.696;2022-11-20T14:48:08;4.20;;;2.17;;
25649;SDS011;13505;45.196;5.696;2022-11-20T14:53:00;5.07;;;2.00;;
25649;SDS011;13505;45.196;5.696;2022-11-20T14:57:55;2.67;;;1.90;;
25649;SDS011;13505;45.196;5.696;2022-11-20T15:02:48;4.45;;;2.10;;
25649;SDS011;13505;45.196;5.696;2022-11-20T15:07:41;17.85;;;10.20;;
25649;SDS011;13505;45.196;5.696;2022-11-20T15:12:36;13.30;;;8.02;;
25649;SDS011;13505;45.196;5.696;2022-11-20T15:17:30;9.38;;;3.83;;
25649;SDS011;13505;45.196;5.696;2022-11-20T15:22:21;5.38;;;2.90;;
25649;SDS011;13505;45.196;5.696;2022-11-20T15:27:11;6.20;;;3.93;;
25649;SDS011;13505;45.196;5.696;2022-11-20T15:32:02;4.45;;;3.10;;
25649;SDS011;13505;45.196;5.696;2022-11-20T15:36:53;8.57;;;3.70;;
25649;SDS011;13505;45.196;5.696;2022-11-20T15:41:44;8.93;;;4.32;;
25649;SDS011;13505;45.196;5.696;2022-11-20T15:46:41;7.75;;;4.40;;
25649;SDS011;13505;45.196;5.696;2022-11-20T15:51:35;5.80;;;3.55;;
25649;SDS011;13505;45.196;5.696;2022-11-20T15:56:27;5.22;;;3.60;;
25649;SDS011;13505;45.196;5.696;2022-11-20T16:01:18;5.00;;;2.78;;
25649;SDS011;13505;45.196;5.696;2022-11-20T16:06:10;7.80;;;3.60;;
25649;SDS011;13505;45.196;5.696;2022-11-20T16:11:01;5.95;;;3.80;;
25649;SDS011;13505;45.196;5.696;2022-11-20T16:15:52;10.20;;;3.90;;
25649;SDS011;13505;45.196;5.696;2022-11-20T16:20:48;11.27;;;4.30;;
25649;SDS011;13505;45.196;5.696;2022-11-20T16:25:40;17.13;;;8.60;;
25649;SDS011;13505;45.196;5.696;2022-11-20T16:30:32;8.60;;;5.07;;
25649;SDS011;13505;45.196;5.696;2022-11-20T16:35:23;8.45;;;4.43;;
25649;SDS011;13505;45.196;5.696;2022-11-20T16:40:15;12.65;;;5.10;;
25649;SDS011;13505;45.196;5.696;2022-11-20T16:45:06;10.18;;;5.00;;
25649;SDS011;13505;45.196;5.696;2022-11-20T16:49:56;8.95;;;5.00;;
25649;SDS011;13505;45.196;5.696;2022-11-20T16:54:47;8.90;;;4.67;;
25649;SDS011;13505;45.196;5.696;2022-11-20T16:59:37;5.97;;;3.95;;
25649;SDS011;13505;45.196;5.696;2022-11-20T17:04:27;15.98;;;8.05;;
25649;SDS011;13505;45.196;5.696;2022-11-20T17:09:18;16.30;;;8.88;;
25649;SDS011;13505;45.196;5.696;2022-11-20T17:14:09;11.35;;;6.03;;
25649;SDS011;13505;45.196;5.696;2022-11-20T17:19:00;8.63;;;4.15;;
25649;SDS011;13505;45.196;5.696;2022-11-20T17:23:52;5.57;;;3.42;;
25649;SDS011;13505;45.196;5.696;2022-11-20T17:28:43;6.05;;;3.75;;
25649;SDS011;13505;45.196;5.696;2022-11-20T17:33:35;9.35;;;4.78;;
25649;SDS011;13505;45.196;5.696;2022-11-20T17:38:27;13.15;;;6.28;;
25649;SDS011;13505;45.196;5.696;2022-11-20T17:48:17;13.85;;;6.43;;
25649;SDS011;13505;45.196;5.696;2022-11-20T17:53:08;12.98;;;6.15;;
25649;SDS011;13505;45.196;5.696;2022-11-20T17:57:58;12.48;;;6.03;;
25649;SDS011;13505;45.196;5.696;2022-11-20T18:02:51;14.35;;;5.38;;
25649;SDS011;13505;45.196;5.696;2022-11-20T18:07:42;6.88;;;3.78;;
25649;SDS011;13505;45.196;5.696;2022-11-20T18:12:32;4.27;;;2.20;;
25649;SDS011;13505;45.196;5.696;2022-11-20T18:17:23;3.22;;;1.92;;
25649;SDS011;13505;45.196;5.696;2022-11-20T18:22:14;2.72;;;1.55;;
25649;SDS011;13505;45.196;5.696;2022-11-20T18:27:06;3.47;;;1.90;;
25649;SDS011;13505;45.196;5.696;2022-11-20T18:31:58;1.52;;;1.25;;
25649;SDS011;13505;45.196;5.696;2022-11-20T18:36:49;2.60;;;1.40;;
25649;SDS011;13505;45.196;5.696;2022-11-20T18:41:39;3.53;;;1.30;;
25649;SDS011;13505;45.196;5.696;2022-11-20T18:46:49;1.70;;;1.40;;
25649;SDS011;13505;45.196;5.696;2022-11-20T18:51:40;2.88;;;1.60;;
25649;SDS011;13505;45.196;5.696;2022-11-20T18:56:33;5.65;;;2.30;;
25649;SDS011;13505;45.196;5.696;2022-11-20T19:01:26;9.13;;;3.22;;
25649;SDS011;13505;45.196;5.696;2022-11-20T19:06:16;11.98;;;5.68;;
25649;SDS011;13505;45.196;5.696;2022-11-20T19:11:08;18.63;;;9.50;;
25649;SDS011;13505;45.196;5.696;2022-11-20T19:20:53;9.65;;;5.97;;
25649;SDS011;13505;45.196;5.696;2022-11-20T19:25:44;15.45;;;8.27;;
25649;SDS011;13505;45.196;5.696;2022-11-20T19:30:34;12.20;;;7.40;;
25649;SDS011;13505;45.196;5.696;2022-11-20T19:35:24;15.88;;;8.82;;
25649;SDS011;13505;45.196;5.696;2022-11-20T19:40:15;15.47;;;8.87;;
25649;SDS011;13505;45.196;5.696;2022-11-20T19:45:05;18.52;;;10.30;;
25649;SDS011;13505;45.196;5.696;2022-11-20T19:49:56;33.92;;;15.85;;
25649;SDS011;13505;45.196;5.696;2022-11-20T19:54:46;32.45;;;17.98;;
25649;SDS011;13505;45.196;5.696;2022-11-20T19:59:37;23.15;;;13.10;;
25649;SDS011;13505;45.196;5.696;2022-11-20T20:04:27;14.10;;;7.75;;
25649;SDS011;13505;45.196;5.696;2022-11-20T20:09:18;15.75;;;10.00;;
25649;SDS011;13505;45.196;5.696;2022-11-20T20:14:09;10.45;;;6.82;;
25649;SDS011;13505;45.196;5.696;2022-11-20T20:19:03;11.82;;;6.82;;
25649;SDS011;13505;45.196;5.696;2022-11-20T20:23:54;14.60;;;7.00;;
25649;SDS011;13505;45.196;5.696;2022-11-20T20:28:46;9.32;;;5.90;;
25649;SDS011;13505;45.196;5.696;2022-11-20T20:33:37;18.23;;;6.53;;
25649;SDS011;13505;45.196;5.696;2022-11-20T20:38:28;23.77;;;6.88;;
25649;SDS011;13505;45.196;5.696;2022-11-20T20:43:18;11.33;;;5.53;;
25649;SDS011;13505;45.196;5.696;2022-11-20T20:48:08;7.55;;;4.82;;
25649;SDS011;13505;45.196;5.696;2022-11-20T20:52:59;14.20;;;8.95;;
25649;SDS011;13505;45.196;5.696;2022-11-20T20:57:49;9.90;;;6.53;;
25649;SDS011;13505;45.196;5.696;2022-11-20T21:02:39;11.93;;;7.15;;
25649;SDS011;13505;45.196;5.696;2022-11-20T21:07:30;12.70;;;7.07;;
25649;SDS011;13505;45.196;5.696;2022-11-20T21:12:20;12.20;;;7.33;;
25649;SDS011;13505;45.196;5.696;2022-11-20T21:17:10;13.47;;;7.57;;
25649;SDS011;13505;45.196;5.696;2022-11-20T21:22:00;12.07;;;8.00;;
25649;SDS011;13505;45.196;5.696;2022-11-20T21:26:54;14.68;;;9.05;;
25649;SDS011;13505;45.196;5.696;2022-11-20T21:31:45;10.77;;;6.47;;
25649;SDS011;13505;45.196;5.696;2022-11-20T21:36:36;9.65;;;6.00;;
25649;SDS011;13505;45.196;5.696;2022-11-20T21:41:27;18.23;;;10.00;;
25649;SDS011;13505;45.196;5.696;2022-11-20T21:46:21;10.60;;;5.72;;
25649;SDS011;13505;45.196;5.696;2022-11-20T21:51:16;9.63;;;5.97;;
25649;SDS011;13505;45.196;5.696;2022-11-20T21:56:08;7.78;;;4.68;;
25649;SDS011;13505;45.196;5.696;2022-11-20T22:01:05;7.47;;;3.95;;
25649;SDS011;13505;45.196;5.696;2022-11-20T22:06:00;6.70;;;3.65;;
25649;SDS011;13505;45.196;5.696;2022-11-20T22:10:54;6.93;;;3.80;;
25649;SDS011;13505;45.196;5.696;2022-11-20T22:15:49;6.90;;;3.60;;
25649;SDS011;13505;45.196;5.696;2022-11-20T22:20:40;7.72;;;3.63;;
25649;SDS011;13505;45.196;5.696;2022-11-20T22:25:33;6.20;;;3.85;;
25649;SDS011;13505;45.196;5.696;2022-11-20T22:30:24;6.72;;;4.53;;
25649;SDS011;13505;45.196;5.696;2022-11-20T22:35:15;7.47;;;4.78;;
25649;SDS011;13505;45.196;5.696;2022-11-20T22:40:06;10.38;;;6.22;;
25649;SDS011;13505;45.196;5.696;2022-11-20T22:44:57;10.27;;;6.32;;
25649;SDS011;13505;45.196;5.696;2022-11-20T22:49:47;14.13;;;7.90;;
25649;SDS011;13505;45.196;5.696;2022-11-20T22:54:37;15.13;;;9.05;;
25649;SDS011;13505;45.196;5.696;2022-11-20T22:59:27;14.70;;;9.45;;
